CW8505 Weather Reports


Display with metric or nautical units.
time (UTC)temp
F
wind
direction
speed
MPH
gust
MPH
rain 1hr
in
rain 24hr
in
rain mn
in
humidity
%
barometer
mb
20190620152723 48 254 2.0 4.0 0.00 0.00 0.00 75 1021.0
20190620151822 47 244 2.0 3.0 0.00 0.00 0.00 75 1020.9
20190620150923 47 243 1.0 2.0 0.00 0.00 0.00 77 1020.9
20190620150022 47 242 1.0 4.0 0.00 0.00 0.00 79 1020.9
20190620145123 48 258 2.0 3.0 0.00 0.00 0.00 80 1020.9
20190620144223 48 262 2.0 4.0 0.00 0.00 0.00 77 1020.9
20190620143322 48 257 4.0 7.0 0.00 0.00 0.00 77 1021.1
20190620142423 48 247 3.0 7.0 0.00 0.00 0.00 78 1020.9
20190620141522 48 246 3.0 5.0 0.00 0.00 0.00 79 1020.9
20190620140623 48 251 3.0 6.0 0.00 0.00 0.00 79 1021.1
20190620135722 48 244 3.0 6.0 0.00 0.00 0.00 76 1021.1
20190620134822 48 226 1.0 5.0 0.00 0.00 0.00 77 1021.0
20190620133923 48 241 3.0 5.0 0.00 0.00 0.00 78 1021.1
20190620133022 48 245 3.0 5.0 0.00 0.00 0.00 79 1021.1
20190620132122 48 253 3.0 6.0 0.00 0.00 0.00 79 1021.1
20190620131223 48 250 4.0 7.0 0.00 0.00 0.00 78 1021.1
20190620130322 48 249 4.0 7.0 0.00 0.00 0.00 79 1021.1
20190620125423 47 249 4.0 7.0 0.00 0.00 0.00 79 1021.1
20190620124522 48 257 4.0 7.0 0.00 0.00 0.00 79 1021.1
20190620123622 48 255 2.0 5.0 0.00 0.00 0.00 77 1021.2
20190620122722 48 255 1.0 4.0 0.00 0.00 0.00 77 1021.2
20190620121823 48 254 1.0 4.0 0.00 0.00 0.00 76 1021.2
20190620120922 48 239 1.0 5.0 0.00 0.00 0.00 77 1021.2
20190620120022 48 248 3.0 5.0 0.00 0.00 0.00 78 1021.3
20190620115122 48 255 2.0 6.0 0.00 0.00 0.00 79 1021.3
20190620114223 48 256 2.0 5.0 0.00 0.00 0.00 80 1021.4
20190620113322 48 261 2.0 5.0 0.00 0.00 0.00 79 1021.2
20190620112422 48 263 3.0 5.0 0.00 0.00 0.00 79 1021.2
20190620111522 47 263 0.0 4.0 0.00 0.00 0.00 80 1021.3
20190620110622 47 315 0.0 1.0 0.00 0.00 0.00 81 1021.3
20190620105722 47 263 1.0 2.0 0.00 0.00 0.00 80 1021.2
20190620104822 47 258 0.0 2.0 0.00 0.00 0.00 80 1021.4
20190620103922 47 254 0.0 2.0 0.00 0.00 0.00 80 1021.4
20190620103022 48 267 2.0 4.0 0.00 0.00 0.00 80 1021.5
20190620102122 48 270 0.0 2.0 0.00 0.00 0.00 80 1021.5
20190620101222 48 0 0.0 0.0 0.00 0.00 0.00 80 1021.6
20190620100322 48 274 0.0 2.0 0.00 0.00 0.00 79 1021.5
20190620095422 48 265 1.0 2.0 0.00 0.00 0.00 79 1021.5
20190620094522 48 264 0.0 2.0 0.00 0.00 0.00 78 1021.5
20190620093622 48 44 0.0 1.0 0.00 0.00 0.00 78 1021.5
20190620092722 48 346 0.0 2.0 0.00 0.00 0.00 78 1021.5
20190620091822 49 249 1.0 3.0 0.00 0.00 0.00 77 1021.5
20190620090923 49 258 3.0 6.0 0.00 0.00 0.00 78 1021.4
20190620090023 49 261 3.0 6.0 0.00 0.00 0.00 79 1021.4
20190620085122 49 268 0.0 2.0 0.00 0.00 0.00 78 1021.3
20190620084222 49 239 0.0 2.0 0.00 0.00 0.00 78 1021.2
20190620083322 49 254 1.0 3.0 0.00 0.00 0.00 77 1021.2
20190620082422 49 272 0.0 1.0 0.00 0.00 0.00 76 1021.1
20190620081522 49 0 0.0 0.0 0.00 0.00 0.00 76 1021.1
20190620080623 49 257 0.0 2.0 0.00 0.00 0.00 75 1021.1
20190620075722 49 253 1.0 2.0 0.00 0.00 0.00 75 1021.1
20190620074822 49 252 1.0 3.0 0.00 0.00 0.00 76 1021.1
20190620073922 50 259 1.0 2.0 0.00 0.00 0.00 76 1021.0
20190620073022 50 281 0.0 2.0 0.00 0.00 0.00 75 1020.7
20190620072122 50 326 0.0 1.0 0.00 0.00 0.00 74 1020.6
20190620071222 49 171 0.0 1.0 0.00 0.00 0.00 69 1020.4
20190620070322 49 165 1.0 1.0 0.00 0.00 0.00 69 1020.3
20190620065422 50 169 1.0 2.0 0.00 0.00 0.00 69 1020.1
20190620064522 51 179 1.0 2.0 0.00 0.00 0.00 66 1020.2
20190620063622 53 91 0.0 1.0 0.00 0.00 0.00 62 1020.1
20190620062722 54 103 0.0 2.0 0.00 0.00 0.00 57 1020.0
20190620061822 55 99 1.0 3.0 0.00 0.00 0.00 56 1019.9
20190620060922 56 107 0.0 2.0 0.00 0.00 0.00 54 1019.9
20190620060022 56 132 0.0 3.0 0.00 0.00 0.00 54 1019.9
20190620055122 56 114 1.0 4.0 0.00 0.00 0.00 54 1019.9
20190620054222 56 108 1.0 3.0 0.00 0.00 0.00 54 1020.1
20190620053322 56 98 1.0 4.0 0.00 0.00 0.00 55 1020.2
20190620052422 57 104 1.0 3.0 0.00 0.00 0.00 53 1020.1
20190620051522 57 129 1.0 4.0 0.00 0.00 0.00 54 1020.1
20190620050622 57 115 1.0 4.0 0.00 0.00 0.00 53 1020.2
20190620045722 57 115 1.0 4.0 0.00 0.00 0.00 55 1020.4
20190620044822 57 62 1.0 4.0 0.00 0.00 0.00 53 1020.4
20190620043922 57 112 1.0 4.0 0.00 0.00 0.00 53 1020.3
20190620043022 57 31 1.0 7.0 0.00 0.00 0.00 53 1020.3
20190620042122 58 112 1.0 3.0 0.00 0.00 0.00 54 1020.4
20190620041222 57 126 1.0 3.0 0.00 0.00 0.00 52 1020.5
20190620040322 57 62 1.0 5.0 0.00 0.00 0.00 53 1020.5
20190620035422 58 38 1.0 5.0 0.00 0.00 0.00 51 1020.6
20190620034522 58 15 1.0 5.0 0.00 0.00 0.00 53 1020.6
20190620033622 58 68 1.0 4.0 0.00 0.00 0.00 51 1020.8
20190620032722 57 128 1.0 5.0 0.00 0.00 0.00 52 1020.8
20190620031822 58 28 1.0 3.0 0.00 0.00 0.00 51 1020.9
20190620030922 58 46 1.0 3.0 0.00 0.00 0.00 48 1021.1
20190620030022 57 15 1.0 4.0 0.00 0.00 0.00 46 1021.3
20190620025122 58 350 2.0 5.0 0.00 0.00 0.00 46 1021.3
20190620024222 58 324 1.0 5.0 0.00 0.00 0.00 49 1021.5
20190620023322 57 277 2.0 5.0 0.00 0.00 0.00 48 1021.7
20190620022422 57 290 1.0 5.0 0.00 0.00 0.00 46 1021.9
20190620021522 57 291 1.0 5.0 0.00 0.00 0.00 48 1022.0
20190620020622 57 316 2.0 4.0 0.00 0.00 0.00 49 1022.4
20190620015722 56 290 1.0 3.0 0.00 0.00 0.00 48 1022.8
20190620014822 56 255 3.0 5.0 0.00 0.00 0.00 51 1023.0
20190620013922 56 99 1.0 4.0 0.00 0.00 0.00 55 1023.1
20190620013022 56 290 1.0 5.0 0.00 0.00 0.00 56 1023.3
20190620012122 55 294 2.0 5.0 0.00 0.00 0.00 58 1023.4
20190620011222 54 269 3.0 6.0 0.00 0.00 0.00 57 1023.6
20190620010322 53 266 3.0 6.0 0.00 0.00 0.00 58 1023.8
20190620005422 53 257 3.0 7.0 0.00 0.00 0.00 57 1024.0
20190620004522 53 259 3.0 6.0 0.00 0.00 0.00 59 1024.0
20190620003622 52 261 4.0 8.0 0.00 0.00 0.00 60 1024.1
20190620002722 51 265 4.0 8.0 0.00 0.00 0.00 60 1024.3
20190620001822 51 263 5.0 8.0 0.00 0.00 0.00 60 1024.4
20190620000922 50 259 5.0 10.0 0.00 0.00 0.00 61 1024.2
20190620000022 50 265 5.0 10.0 0.00 0.00 0.00 62 1024.4
20190619235122 49 255 4.0 9.0 0.00 0.00 0.00 63 1024.4
20190619234222 49 252 4.0 9.0 0.00 0.00 0.00 65 1024.4
20190619233322 48 254 4.0 7.0 0.00 0.00 0.00 66 1024.4
20190619232422 47 254 5.0 9.0 0.00 0.00 0.00 66 1024.3
20190619231522 47 256 5.0 9.0 0.00 0.00 0.00 66 1024.2
20190619230621 46 255 5.0 9.0 0.00 0.00 0.00 67 1024.1
20190619225722 46 257 5.0 9.0 0.00 0.00 0.00 68 1024.2
20190619224822 45 258 4.0 8.0 0.00 0.00 0.00 68 1024.1
20190619223922 45 259 5.0 9.0 0.00 0.00 0.00 69 1023.9
20190619223022 44 256 6.0 9.0 0.00 0.00 0.00 69 1023.9
20190619222122 44 257 5.0 9.0 0.00 0.00 0.00 71 1023.8
20190619221221 44 257 5.0 9.0 0.00 0.00 0.00 71 1023.7
20190619220322 43 259 5.0 10.0 0.00 0.00 0.00 71 1023.7
20190619215422 43 255 5.0 11.0 0.00 0.00 0.00 72 1023.7
20190619214521 42 253 5.0 9.0 0.00 0.00 0.00 73 1023.7
20190619213622 42 256 5.0 9.0 0.00 0.00 0.00 74 1023.7
20190619212722 42 257 5.0 10.0 0.00 0.00 0.00 74 1023.7
20190619211822 42 257 5.0 9.0 0.00 0.00 0.00 74 1023.6
20190619210921 42 252 5.0 10.0 0.00 0.00 0.00 73 1023.7
20190619210021 42 253 5.0 8.0 0.00 0.00 0.00 73 1023.6
20190619205122 42 253 5.0 9.0 0.00 0.00 0.00 73 1023.5
20190619204222 42 258 6.0 10.0 0.00 0.00 0.00 73 1023.5
20190619203321 42 257 5.0 10.0 0.00 0.00 0.00 73 1023.4
20190619202422 43 255 5.0 10.0 0.00 0.00 0.00 73 1023.4
20190619201522 42 251 5.0 9.0 0.00 0.00 0.00 74 1023.3
20190619200621 43 254 4.0 9.0 0.00 0.00 0.00 73 1023.5
20190619195721 43 246 4.0 10.0 0.00 0.00 0.00 74 1023.4
20190619194822 42 248 5.0 10.0 0.00 0.00 0.00 74 1023.4
20190619193922 42 251 5.0 9.0 0.00 0.00 0.00 74 1023.4
20190619193021 42 254 5.0 9.0 0.00 0.00 0.00 74 1023.3
20190619192121 42 254 5.0 10.0 0.00 0.00 0.00 75 1023.1
20190619191222 42 249 5.0 9.0 0.00 0.00 0.00 75 1023.2
20190619190322 42 249 5.0 10.0 0.00 0.00 0.00 74 1023.2
20190619185421 42 248 4.0 9.0 0.00 0.00 0.00 75 1023.3
20190619184522 43 247 5.0 10.0 0.00 0.00 0.00 75 1023.3
20190619183621 43 246 5.0 9.0 0.00 0.00 0.00 75 1023.3
20190619182722 43 250 6.0 10.0 0.00 0.00 0.00 74 1023.2
20190619181821 43 248 5.0 9.0 0.00 0.00 0.00 75 1023.2
20190619180921 43 249 6.0 11.0 0.00 0.00 0.00 74 1023.2
20190619180021 43 250 4.0 10.0 0.00 0.00 0.00 75 1023.3
20190619175122 43 251 5.0 10.0 0.00 0.00 0.00 75 1023.2
20190619174221 43 250 5.0 10.0 0.00 0.00 0.00 75 1023.1
20190619173322 43 249 5.0 9.0 0.00 0.00 0.00 75 1023.3
20190619172421 43 252 5.0 9.0 0.00 0.00 0.00 75 1023.1
20190619171522 43 250 5.0 11.0 0.00 0.00 0.00 75 1023.2
20190619170622 43 254 5.0 9.0 0.00 0.00 0.00 75 1023.3
20190619165722 42 251 5.0 10.0 0.00 0.00 0.00 78 1023.3
20190619164822 42 250 4.0 9.0 0.00 0.00 0.00 78 1023.3
20190619163921 42 255 4.0 9.0 0.00 0.00 0.00 78 1023.4
20190619163021 42 250 4.0 9.0 0.00 0.00 0.00 77 1023.4
20190619162121 42 246 4.0 8.0 0.00 0.00 0.00 77 1023.3
20190619161221 43 246 5.0 9.0 0.00 0.00 0.00 76 1023.3
20190619160321 43 247 5.0 11.0 0.00 0.00 0.00 75 1023.3
20190619155422 43 244 5.0 11.0 0.00 0.00 0.00 75 1023.5
20190619154521 43 240 5.0 10.0 0.00 0.00 0.00 76 1023.5
20190619153621 43 243 4.0 9.0 0.00 0.00 0.00 76 1023.5